Time;durP1;ratioP1;P1;durP2;ratioP2;P2;SDS_P1;SDS_P2;PMS_P1;PMS_P2;Temp;Humidity;BMP_temperature;BMP_pressure;BME280_temperature;BME280_humidity;BME280_pressure;Samples;Min_cycle;Max_cycle;Signal;HPM_P1;HPM_P2
2022/08/26 00:00:30;;;;;;;44.17;31.65;;;21.20;99.90;;;;;;5033072;28;20800;-75
2022/08/26 00:02:56;;;;;;;43.40;31.80;;;21.20;99.90;;;;;;5029661;28;20037;-76
2022/08/26 00:05:22;;;;;;;43.15;31.58;;;21.10;99.90;;;;;;5031045;28;20780;-76
2022/08/26 00:07:48;;;;;;;38.17;30.27;;;21.10;99.90;;;;;;5032776;28;20063;-76
2022/08/26 00:10:14;;;;;;;46.22;31.23;;;21.00;99.90;;;;;;5034390;28;20049;-76
2022/08/26 00:12:40;;;;;;;41.17;28.67;;;21.00;99.90;;;;;;5032412;28;20091;-75
2022/08/26 00:15:08;;;;;;;37.33;27.45;;;20.90;99.90;;;;;;5034155;28;20081;-77
2022/08/26 00:17:34;;;;;;;38.53;26.80;;;20.90;99.90;;;;;;5022054;28;20053;-76
2022/08/26 00:19:59;;;;;;;37.72;26.33;;;20.90;99.90;;;;;;5034713;28;20452;-76
2022/08/26 00:22:25;;;;;;;40.25;24.88;;;20.90;99.90;;;;;;5038098;28;20037;-77
2022/08/26 00:25:28;;;;;;;41.05;24.70;;;20.90;99.90;;;;;;5027828;28;20137;-78
2022/08/26 00:27:54;;;;;;;36.30;23.00;;;20.90;99.90;;;;;;5022210;28;20044;-76
2022/08/26 00:30:23;;;;;;;36.38;22.73;;;20.90;99.90;;;;;;5035304;28;20060;-76
2022/08/26 00:32:49;;;;;;;41.00;21.40;;;20.90;99.90;;;;;;5030052;28;20081;-76
2022/08/26 00:35:15;;;;;;;36.75;21.45;;;20.90;99.90;;;;;;5017931;28;20197;-76
2022/08/26 00:37:41;;;;;;;47.50;21.50;;;21.00;99.90;;;;;;5020930;28;20045;-75
2022/08/26 00:40:12;;;;;;;41.67;21.52;;;21.00;99.90;;;;;;5018576;28;20048;-76
2022/08/26 00:42:41;;;;;;;39.85;21.23;;;21.00;99.90;;;;;;5024123;28;20040;-76
2022/08/26 00:45:07;;;;;;;46.85;20.80;;;21.00;99.90;;;;;;5020294;28;20044;-75
2022/08/26 00:47:37;;;;;;;40.55;21.30;;;20.90;99.90;;;;;;5030509;28;21006;-77
2022/08/26 00:50:06;;;;;;;40.80;21.20;;;21.00;99.90;;;;;;5030611;28;20037;-76
2022/08/26 00:52:34;;;;;;;50.70;20.95;;;21.00;99.90;;;;;;5013170;28;20531;-76
2022/08/26 00:55:14;;;;;;;42.35;20.98;;;20.90;99.90;;;;;;5031894;28;20193;-75
2022/08/26 00:57:41;;;;;;;36.88;21.15;;;21.00;99.90;;;;;;5027231;28;20041;-76
2022/08/26 01:00:13;;;;;;;44.67;22.73;;;21.00;99.90;;;;;;5037167;28;20053;-76
2022/08/26 01:02:39;;;;;;;40.03;21.25;;;20.90;99.90;;;;;;5033371;28;20041;-76
2022/08/26 01:05:07;;;;;;;48.83;23.90;;;20.90;99.90;;;;;;5017373;28;20163;-75
2022/08/26 01:07:33;;;;;;;46.03;22.92;;;20.90;99.90;;;;;;5038321;28;20492;-76
2022/08/26 01:10:03;;;;;;;45.45;21.73;;;20.90;99.90;;;;;;5042814;28;20045;-76
2022/08/26 01:12:34;;;;;;;42.65;21.08;;;20.90;99.90;;;;;;5029551;28;20032;-76
2022/08/26 01:15:01;;;;;;;41.08;21.85;;;20.90;99.90;;;;;;5016283;28;20139;-77
2022/08/26 01:17:29;;;;;;;41.13;21.90;;;20.90;99.90;;;;;;5037654;28;20098;-76
2022/08/26 01:20:05;;;;;;;38.70;21.75;;;20.90;99.90;;;;;;5030529;28;20041;-76
2022/08/26 01:22:52;;;;;;;41.67;21.52;;;20.80;99.90;;;;;;4999670;28;20034;-76
2022/08/26 01:25:19;;;;;;;42.75;21.77;;;20.80;99.90;;;;;;5030774;28;20487;-76
2022/08/26 01:27:45;;;;;;;43.30;22.15;;;20.80;99.90;;;;;;5037930;28;20033;-77
2022/08/26 01:30:12;;;;;;;46.30;22.08;;;20.80;99.90;;;;;;5044511;28;20358;-76
2022/08/26 01:32:38;;;;;;;42.88;22.00;;;20.70;99.90;;;;;;5030197;28;20046;-75
2022/08/26 01:35:05;;;;;;;43.70;21.85;;;20.70;99.90;;;;;;5029034;28;20129;-77
2022/08/26 01:37:36;;;;;;;45.58;20.95;;;20.70;99.90;;;;;;5031771;28;20083;-76
2022/08/26 01:40:08;;;;;;;45.50;22.27;;;20.70;99.90;;;;;;5014468;28;20099;-77
2022/08/26 01:42:34;;;;;;;41.78;21.40;;;20.70;99.90;;;;;;5031946;28;20123;-76
2022/08/26 01:45:25;;;;;;;50.80;21.90;;;20.70;99.90;;;;;;5027462;28;20037;-75
2022/08/26 01:47:53;;;;;;;38.80;20.73;;;20.70;99.90;;;;;;4958285;28;20058;-76
2022/08/26 01:50:27;;;;;;;43.25;22.02;;;20.60;99.90;;;;;;4966312;28;20042;-76
2022/08/26 01:52:54;;;;;;;46.78;23.02;;;20.70;99.90;;;;;;4963091;28;20197;-77
2022/08/26 01:55:22;;;;;;;47.63;21.67;;;20.60;99.90;;;;;;4958769;28;20046;-77
2022/08/26 01:57:51;;;;;;;44.25;22.73;;;20.60;99.90;;;;;;4961358;28;20046;-75
2022/08/26 02:00:17;;;;;;;48.65;24.17;;;20.60;99.90;;;;;;4964507;28;20065;-76
2022/08/26 02:02:48;;;;;;;41.65;21.98;;;20.60;99.90;;;;;;4962763;28;20066;-76
2022/08/26 02:05:18;;;;;;;46.92;22.50;;;20.60;99.90;;;;;;4968325;28;20073;-77
2022/08/26 02:07:44;;;;;;;47.92;23.33;;;20.60;99.90;;;;;;4976891;28;20169;-75
2022/08/26 02:10:11;;;;;;;38.17;22.38;;;20.60;99.90;;;;;;4973767;28;20497;-77
2022/08/26 02:12:37;;;;;;;55.25;24.00;;;20.60;99.90;;;;;;4970558;28;20046;-76
2022/08/26 02:15:07;;;;;;;50.33;22.40;;;20.70;99.90;;;;;;4966923;28;20347;-76
2022/08/26 02:17:37;;;;;;;53.85;23.20;;;20.60;99.90;;;;;;4985407;28;20395;-76
2022/08/26 02:20:04;;;;;;;49.85;23.73;;;20.60;99.90;;;;;;4965217;28;20043;-76
2022/08/26 02:22:34;;;;;;;51.00;23.02;;;20.70;99.90;;;;;;4948754;28;20049;-76
2022/08/26 02:25:20;;;;;;;50.78;23.17;;;20.70;99.90;;;;;;5011886;28;20104;-77
2022/08/26 02:27:47;;;;;;;47.83;22.92;;;20.70;99.90;;;;;;5036155;28;20060;-76
2022/08/26 02:30:20;;;;;;;46.83;23.65;;;20.70;99.90;;;;;;5036984;28;20049;-77
2022/08/26 02:32:46;;;;;;;46.63;22.15;;;20.70;99.90;;;;;;5032364;28;20088;-76
2022/08/26 02:35:14;;;;;;;51.10;23.25;;;20.70;99.90;;;;;;5025037;28;20068;-77
2022/08/26 02:37:41;;;;;;;53.28;22.10;;;20.60;99.90;;;;;;5036315;28;20041;-76
2022/08/26 02:40:08;;;;;;;47.30;23.45;;;20.60;99.90;;;;;;5036080;28;20056;-76
2022/08/26 02:42:34;;;;;;;46.45;22.35;;;20.60;99.90;;;;;;5032724;28;20381;-77
2022/08/26 02:45:00;;;;;;;50.40;22.70;;;20.60;99.90;;;;;;5049109;28;20048;-76
2022/08/26 02:47:26;;;;;;;50.28;22.15;;;20.60;99.90;;;;;;5043111;28;20458;-75
2022/08/26 02:49:52;;;;;;;47.70;21.70;;;20.60;99.90;;;;;;5026530;28;20052;-75
2022/08/26 02:52:19;;;;;;;47.25;22.73;;;20.50;99.90;;;;;;5038173;28;20393;-77
2022/08/26 02:54:44;;;;;;;45.38;21.65;;;20.50;99.90;;;;;;5026610;28;20451;-76
2022/08/26 02:57:11;;;;;;;54.70;21.58;;;20.50;99.90;;;;;;5033024;28;20037;-76
2022/08/26 02:59:38;;;;;;;42.47;21.50;;;20.60;99.90;;;;;;5017027;28;20048;-76
2022/08/26 03:02:04;;;;;;;45.55;21.90;;;20.50;99.90;;;;;;5016354;28;20045;-76
2022/08/26 03:04:30;;;;;;;44.22;21.48;;;20.60;99.90;;;;;;5034177;28;20041;-76
2022/08/26 03:06:59;;;;;;;45.75;19.80;;;20.50;99.90;;;;;;5032112;28;20068;-76
2022/08/26 03:09:25;;;;;;;39.17;19.33;;;20.60;99.90;;;;;;5035605;28;20038;-76
2022/08/26 03:11:51;;;;;;;38.38;18.98;;;20.50;99.90;;;;;;5044123;28;20047;-77
2022/08/26 03:14:17;;;;;;;40.83;19.08;;;20.50;99.90;;;;;;5037356;28;20353;-76
2022/08/26 03:16:42;;;;;;;39.33;18.65;;;20.50;99.90;;;;;;5022443;28;20044;-76
2022/08/26 03:19:08;;;;;;;44.72;18.63;;;20.60;99.90;;;;;;5034055;28;20555;-77
2022/08/26 03:21:36;;;;;;;36.20;16.75;;;20.50;99.90;;;;;;5034193;28;20388;-77
2022/08/26 03:24:03;;;;;;;42.83;18.30;;;20.60;99.90;;;;;;5020781;28;20159;-76
2022/08/26 03:26:29;;;;;;;46.08;18.35;;;20.60;99.90;;;;;;5033853;28;20033;-76
2022/08/26 03:31:40;;;;;;;38.58;17.75;;;20.60;99.90;;;;;;5035902;28;20177;-76
2022/08/26 03:34:06;;;;;;;37.25;17.75;;;20.50;99.90;;;;;;5026009;28;20475;-77
2022/08/26 03:36:33;;;;;;;34.20;16.80;;;20.60;99.90;;;;;;5026449;28;20041;-76
2022/08/26 03:38:58;;;;;;;32.50;16.75;;;20.60;99.90;;;;;;5033745;28;20116;-76
2022/08/26 03:41:24;;;;;;;37.60;15.60;;;20.60;99.90;;;;;;5020433;28;20160;-76
2022/08/26 03:43:50;;;;;;;32.70;14.82;;;20.50;99.90;;;;;;5015498;28;20053;-75
2022/08/26 03:46:17;;;;;;;30.75;14.48;;;20.50;99.90;;;;;;5035783;28;20045;-76
2022/08/26 03:48:43;;;;;;;29.10;13.77;;;20.50;99.90;;;;;;5042958;28;20140;-77
2022/08/26 03:51:15;;;;;;;30.55;13.55;;;20.40;99.90;;;;;;5036063;28;20183;-76
2022/08/26 03:53:40;;;;;;;29.80;14.15;;;20.50;99.90;;;;;;5037489;28;21034;-77
2022/08/26 03:56:06;;;;;;;35.95;14.93;;;20.50;99.90;;;;;;5025678;28;20037;-76
2022/08/26 03:58:32;;;;;;;33.47;15.30;;;20.50;99.90;;;;;;5044157;28;20040;-77
2022/08/26 04:00:59;;;;;;;33.88;15.07;;;20.50;99.90;;;;;;5035148;28;20046;-75
2022/08/26 04:06:10;;;;;;;36.75;15.52;;;20.50;99.90;;;;;;5039762;28;20159;-75
2022/08/26 04:08:36;;;;;;;28.73;12.95;;;20.40;99.90;;;;;;5033082;28;20167;-75
2022/08/26 04:11:05;;;;;;;39.15;14.50;;;20.40;99.90;;;;;;5052234;28;20052;-77
2022/08/26 04:13:32;;;;;;;31.45;13.45;;;20.40;99.90;;;;;;5031360;28;20032;-76
2022/08/26 04:15:58;;;;;;;39.38;13.70;;;20.40;99.90;;;;;;5022277;28;20049;-77
2022/08/26 04:18:26;;;;;;;33.78;13.57;;;20.40;99.90;;;;;;5018322;28;20125;-77
2022/08/26 04:20:55;;;;;;;24.90;12.60;;;20.30;99.90;;;;;;5017541;28;20063;-76
2022/08/26 04:23:21;;;;;;;28.05;13.13;;;20.30;99.90;;;;;;5032357;28;20045;-77
2022/08/26 04:25:46;;;;;;;29.08;13.60;;;20.20;99.90;;;;;;5019098;28;20452;-76
2022/08/26 04:28:13;;;;;;;28.77;13.63;;;20.20;99.90;;;;;;5041198;28;20048;-76
2022/08/26 04:30:39;;;;;;;33.80;13.68;;;20.20;99.90;;;;;;5044615;28;20453;-76
2022/08/26 04:33:06;;;;;;;26.63;13.02;;;20.20;99.90;;;;;;5029768;28;20126;-75
2022/08/26 04:35:33;;;;;;;25.80;13.75;;;20.20;99.90;;;;;;5026559;28;20111;-78
2022/08/26 04:38:00;;;;;;;26.15;14.05;;;20.20;99.90;;;;;;5032740;28;20040;-77
2022/08/26 04:40:26;;;;;;;31.17;14.40;;;20.20;99.90;;;;;;5016521;28;20095;-75
2022/08/26 04:42:52;;;;;;;33.78;15.90;;;20.20;99.90;;;;;;5035121;28;20041;-76
2022/08/26 04:45:18;;;;;;;35.40;15.70;;;20.20;99.90;;;;;;5034544;28;20064;-75
2022/08/26 04:47:45;;;;;;;32.47;14.55;;;20.10;99.90;;;;;;5019273;28;20037;-77
2022/08/26 04:50:11;;;;;;;35.20;15.02;;;20.10;99.90;;;;;;5023865;28;20041;-76
2022/08/26 04:52:37;;;;;;;32.78;13.27;;;20.10;99.90;;;;;;5034715;28;20045;-76
2022/08/26 04:55:04;;;;;;;31.92;14.05;;;20.10;99.90;;;;;;5028273;28;20128;-77
2022/08/26 04:57:30;;;;;;;34.92;13.52;;;20.10;99.90;;;;;;5032152;28;20333;-77
2022/08/26 04:59:59;;;;;;;29.80;12.52;;;20.20;99.90;;;;;;5047425;28;20077;-77
2022/08/26 05:02:25;;;;;;;31.45;13.27;;;20.20;99.90;;;;;;5017502;28;20060;-77
2022/08/26 05:04:51;;;;;;;34.95;13.55;;;20.20;99.90;;;;;;5034217;28;20033;-75
2022/08/26 05:07:17;;;;;;;36.20;14.77;;;20.10;99.90;;;;;;5014699;28;20047;-76
2022/08/26 05:09:42;;;;;;;35.08;14.93;;;20.10;99.90;;;;;;5034557;28;20037;-76
2022/08/26 05:12:08;;;;;;;31.88;14.45;;;20.10;99.90;;;;;;5030705;28;20133;-76
2022/08/26 05:14:34;;;;;;;36.92;15.00;;;20.10;99.90;;;;;;5030213;28;20045;-76
2022/08/26 05:17:00;;;;;;;29.30;13.32;;;20.10;99.90;;;;;;5018336;28;20044;-78
2022/08/26 05:19:25;;;;;;;34.60;15.90;;;20.20;99.90;;;;;;5024835;28;20036;-77
2022/08/26 05:21:54;;;;;;;30.95;15.40;;;20.30;99.90;;;;;;5038979;28;20111;-81
2022/08/26 05:24:20;;;;;;;35.15;16.58;;;20.20;99.90;;;;;;5037940;28;22326;-77
2022/08/26 05:26:46;;;;;;;38.35;15.70;;;20.20;99.90;;;;;;5030302;28;20033;-77
2022/08/26 05:29:12;;;;;;;35.90;15.88;;;20.20;99.90;;;;;;5035148;28;20079;-80
2022/08/26 05:31:38;;;;;;;46.90;16.17;;;20.30;99.90;;;;;;5033566;28;20114;-79
2022/08/26 05:34:04;;;;;;;33.75;14.38;;;20.30;99.90;;;;;;5022504;28;20037;-81
2022/08/26 05:36:34;;;;;;;33.45;14.50;;;20.30;99.90;;;;;;5021834;28;20037;-80
2022/08/26 05:39:01;;;;;;;36.65;13.52;;;20.40;99.90;;;;;;5017171;28;20037;-80
2022/08/26 05:41:31;;;;;;;34.15;13.73;;;20.40;99.90;;;;;;5018297;28;20053;-77
2022/08/26 05:44:04;;;;;;;33.47;13.43;;;20.40;99.90;;;;;;5027545;28;20098;-76
2022/08/26 05:46:29;;;;;;;28.70;12.63;;;20.40;99.90;;;;;;5029824;28;20136;-76
2022/08/26 05:48:58;;;;;;;38.63;12.85;;;20.40;99.90;;;;;;5046494;28;21557;-77
2022/08/26 05:51:24;;;;;;;32.40;11.57;;;20.40;99.90;;;;;;5029541;28;20042;-77
2022/08/26 05:53:51;;;;;;;30.85;11.27;;;20.50;99.90;;;;;;5028037;28;20105;-77
2022/08/26 05:56:18;;;;;;;30.48;10.68;;;20.60;99.90;;;;;;5010789;28;20047;-76
2022/08/26 05:58:44;;;;;;;31.45;10.52;;;20.60;99.90;;;;;;5031104;28;20046;-76
2022/08/26 06:01:15;;;;;;;32.40;10.30;;;20.60;99.90;;;;;;5029733;28;20095;-78
2022/08/26 06:03:45;;;;;;;27.40;9.02;;;20.70;99.90;;;;;;5029981;28;20069;-78
2022/08/26 06:06:19;;;;;;;23.92;9.35;;;20.70;99.90;;;;;;5027765;28;20045;-76
2022/08/26 06:08:46;;;;;;;23.25;9.45;;;20.70;99.90;;;;;;5033187;28;20075;-76
2022/08/26 06:11:14;;;;;;;26.55;9.20;;;20.80;99.90;;;;;;5011451;28;20048;-78
2022/08/26 06:13:41;;;;;;;18.70;8.35;;;20.80;99.90;;;;;;5021422;28;20033;-77
2022/08/26 06:16:13;;;;;;;24.75;8.88;;;20.80;99.90;;;;;;5031396;28;20084;-77
2022/08/26 06:18:41;;;;;;;22.25;7.78;;;20.70;99.90;;;;;;5030792;28;20117;-78
2022/08/26 06:21:29;;;;;;;25.83;7.93;;;20.80;99.90;;;;;;5028481;28;20400;-81
2022/08/26 06:26:51;;;;;;;21.35;8.27;;;20.80;99.90;;;;;;5027867;28;20115;-81
2022/08/26 06:29:18;;;;;;;;;;;20.80;99.90;;;;;;5035244;28;20053;-79
2022/08/26 06:31:43;;;;;;;24.23;7.75;;;20.80;99.90;;;;;;5025503;28;19937;-79
2022/08/26 06:34:09;;;;;;;19.40;6.43;;;20.80;99.90;;;;;;5026115;28;20041;-80
2022/08/26 06:36:35;;;;;;;25.70;6.60;;;20.80;99.90;;;;;;5038968;28;20061;-81
2022/08/26 06:39:08;;;;;;;21.25;7.03;;;20.80;99.90;;;;;;5025078;28;20461;-80
2022/08/26 06:41:34;;;;;;;27.17;6.95;;;20.90;99.90;;;;;;5032773;28;20080;-81
2022/08/26 06:44:04;;;;;;;21.50;6.53;;;20.80;99.90;;;;;;5022655;28;20080;-81
2022/08/26 06:46:30;;;;;;;21.08;6.63;;;20.80;99.90;;;;;;5044320;28;20136;-80
2022/08/26 06:48:59;;;;;;;27.60;6.60;;;20.90;99.90;;;;;;5030784;28;20536;-78
2022/08/26 06:51:29;;;;;;;21.45;6.35;;;20.80;99.90;;;;;;5032552;28;20445;-78
2022/08/26 06:53:58;;;;;;;22.55;6.82;;;20.80;99.90;;;;;;5028942;28;20045;-78
2022/08/26 06:56:27;;;;;;;18.10;5.57;;;20.70;99.90;;;;;;5050082;28;20107;-75
2022/08/26 06:58:54;;;;;;;25.35;5.88;;;20.70;99.90;;;;;;5022271;28;20365;-75
2022/08/26 07:01:34;;;;;;;25.70;6.65;;;20.60;99.90;;;;;;5031549;28;20147;-75
2022/08/26 07:04:03;;;;;;;23.30;6.32;;;20.60;99.90;;;;;;5035655;28;20124;-75
2022/08/26 07:06:28;;;;;;;21.20;6.05;;;20.60;99.90;;;;;;5037541;28;20069;-76
2022/08/26 07:09:03;;;;;;;25.88;6.70;;;20.60;99.90;;;;;;5031270;28;20130;-80
2022/08/26 07:11:33;;;;;;;20.55;5.85;;;20.60;99.90;;;;;;5034553;28;20060;-80
2022/08/26 07:14:00;;;;;;;29.88;6.45;;;20.60;99.90;;;;;;5041523;28;20049;-79
2022/08/26 07:16:26;;;;;;;17.23;5.32;;;20.60;99.90;;;;;;5043432;28;20029;-81
2022/08/26 07:18:52;;;;;;;21.00;5.70;;;20.70;99.90;;;;;;5045234;28;20034;-80
2022/08/26 07:21:19;;;;;;;20.95;5.72;;;20.70;99.90;;;;;;5037700;28;20052;-79
2022/08/26 07:23:45;;;;;;;17.33;5.32;;;20.80;99.90;;;;;;5040029;28;20046;-79
2022/08/26 07:26:15;;;;;;;19.25;4.93;;;20.80;99.90;;;;;;5029224;28;20040;-80
2022/08/26 07:28:41;;;;;;;18.60;5.05;;;20.90;99.90;;;;;;5039825;28;20442;-78
2022/08/26 07:31:10;;;;;;;17.50;4.53;;;20.80;99.90;;;;;;5017495;28;20049;-79
2022/08/26 07:33:37;;;;;;;17.30;4.63;;;20.90;99.90;;;;;;5031097;28;20038;-79
2022/08/26 07:36:04;;;;;;;18.73;4.97;;;20.90;99.90;;;;;;5030586;28;20064;-79
2022/08/26 07:38:30;;;;;;;17.08;4.82;;;20.80;99.90;;;;;;5018577;28;20575;-81
2022/08/26 07:40:56;;;;;;;12.73;4.05;;;20.90;99.90;;;;;;5028938;28;20081;-80
2022/08/26 07:43:22;;;;;;;15.65;4.18;;;20.90;99.90;;;;;;5030347;28;20072;-82
2022/08/26 07:45:48;;;;;;;12.18;3.30;;;21.10;99.90;;;;;;5039632;28;20049;-82
2022/08/26 07:48:14;;;;;;;19.92;4.00;;;21.10;99.90;;;;;;5033705;28;20084;-80
2022/08/26 07:50:41;;;;;;;21.33;3.55;;;21.10;99.90;;;;;;5037445;28;20469;-82
2022/08/26 07:53:07;;;;;;;14.00;3.15;;;21.20;99.90;;;;;;5025475;28;20057;-77
2022/08/26 07:55:33;;;;;;;15.70;3.22;;;21.10;99.90;;;;;;5038231;28;20135;-77
2022/08/26 07:57:59;;;;;;;15.90;2.58;;;21.00;99.90;;;;;;5034947;28;20102;-78
2022/08/26 08:00:25;;;;;;;19.83;3.13;;;20.90;99.90;;;;;;5033772;28;20033;-78
2022/08/26 08:02:51;;;;;;;17.65;2.80;;;21.00;99.90;;;;;;5032567;28;20076;-79
2022/08/26 08:05:19;;;;;;;13.60;2.53;;;21.10;99.90;;;;;;5019818;28;20049;-79
2022/08/26 08:07:46;;;;;;;19.95;3.15;;;21.30;99.90;;;;;;5038714;28;20380;-78
2022/08/26 08:10:16;;;;;;;15.63;2.50;;;21.40;99.90;;;;;;5025071;28;20045;-76
2022/08/26 08:12:42;;;;;;;15.98;3.10;;;21.50;99.90;;;;;;5013424;28;20154;-78
2022/08/26 08:15:12;;;;;;;22.25;3.15;;;21.60;99.90;;;;;;5012840;28;20135;-77
2022/08/26 08:17:38;;;;;;;20.25;3.15;;;21.70;99.90;;;;;;5030563;28;20382;-76
2022/08/26 08:20:05;;;;;;;15.85;2.90;;;21.60;99.90;;;;;;5034114;28;20056;-77
2022/08/26 08:22:31;;;;;;;16.92;2.90;;;21.60;99.90;;;;;;5030972;28;20466;-76
2022/08/26 08:24:57;;;;;;;19.40;3.22;;;21.50;99.90;;;;;;5032820;28;20428;-75
2022/08/26 08:27:24;;;;;;;13.43;2.35;;;21.50;99.90;;;;;;5019135;28;20148;-76
2022/08/26 08:29:53;;;;;;;14.68;2.30;;;21.40;99.90;;;;;;5022857;28;20123;-77
2022/08/26 08:32:19;;;;;;;14.52;2.33;;;21.20;99.90;;;;;;5016388;28;20415;-74
2022/08/26 08:34:46;;;;;;;16.63;2.70;;;21.10;99.90;;;;;;5009426;28;20095;-77
2022/08/26 08:37:11;;;;;;;15.07;2.67;;;21.20;99.90;;;;;;5032981;28;20041;-76
2022/08/26 08:39:37;;;;;;;11.68;2.50;;;21.20;99.90;;;;;;5015577;28;20041;-74
2022/08/26 08:42:20;;;;;;;13.57;2.20;;;21.10;99.90;;;;;;5030791;28;20134;-76
2022/08/26 08:44:49;;;;;;;11.18;2.22;;;21.10;99.90;;;;;;5039976;28;20060;-74
2022/08/26 08:47:34;;;;;;;15.40;2.38;;;21.00;99.90;;;;;;5026280;28;20500;-74
2022/08/26 08:50:21;;;;;;;13.35;2.38;;;20.80;99.90;;;;;;5037419;28;20064;-74
2022/08/26 08:53:27;;;;;;;8.48;2.25;;;20.90;99.90;;;;;;5019961;28;20397;-74
2022/08/26 08:56:05;;;;;;;12.27;2.00;;;20.90;99.90;;;;;;5018423;28;20195;-75
2022/08/26 08:59:05;;;;;;;10.98;2.28;;;20.90;99.90;;;;;;5020792;28;20057;-75
2022/08/26 09:02:01;;;;;;;14.40;2.25;;;20.80;99.90;;;;;;5025811;28;20040;-77
2022/08/26 09:04:49;;;;;;;12.35;2.10;;;20.80;99.90;;;;;;5050760;28;20508;-76
2022/08/26 09:07:19;;;;;;;10.45;2.45;;;20.80;99.90;;;;;;5057509;28;20057;-76
2022/08/26 09:09:47;;;;;;;18.80;2.90;;;20.70;99.90;;;;;;5047189;28;20053;-75
2022/08/26 09:12:20;;;;;;;14.52;2.72;;;20.80;99.90;;;;;;5035373;28;21063;-76
2022/08/26 09:14:48;;;;;;;14.25;2.40;;;20.70;99.90;;;;;;5022488;28;20045;-76
2022/08/26 09:17:34;;;;;;;13.70;2.75;;;20.70;99.90;;;;;;5013528;28;20050;-79
2022/08/26 09:20:26;;;;;;;12.27;2.30;;;20.60;99.90;;;;;;5015905;28;20055;-72
2022/08/26 09:22:51;;;;;;;14.88;2.45;;;20.70;99.90;;;;;;5022297;28;20532;-73
2022/08/26 09:25:17;;;;;;;17.45;2.72;;;20.80;99.90;;;;;;5015292;28;20075;-72
2022/08/26 09:27:44;;;;;;;8.00;2.05;;;21.00;99.90;;;;;;5029326;28;20061;-71
2022/08/26 09:30:29;;;;;;;19.15;3.13;;;21.00;99.90;;;;;;5028170;28;20069;-77
2022/08/26 09:33:08;;;;;;;12.50;2.63;;;21.00;99.90;;;;;;5019833;28;20445;-77
2022/08/26 09:35:38;;;;;;;16.20;2.80;;;21.10;99.90;;;;;;5016231;28;20068;-77
2022/08/26 09:38:24;;;;;;;13.05;2.60;;;21.10;99.90;;;;;;5019273;28;20147;-78
2022/08/26 09:40:58;;;;;;;13.63;2.50;;;21.20;99.90;;;;;;4997171;28;20041;-77
2022/08/26 09:43:24;;;;;;;11.90;2.72;;;21.40;99.90;;;;;;4999686;28;20057;-79
2022/08/26 09:46:08;;;;;;;12.70;2.38;;;21.50;99.90;;;;;;5022246;28;20041;-77
2022/08/26 09:48:36;;;;;;;11.90;2.60;;;21.60;99.90;;;;;;4999503;28;20057;-76
2022/08/26 09:51:22;;;;;;;12.73;2.60;;;21.50;99.90;;;;;;5018328;28;20057;-77
2022/08/26 09:53:57;;;;;;;14.75;2.60;;;21.60;99.90;;;;;;5020660;28;20045;-77
2022/08/26 09:56:27;;;;;;;18.88;3.03;;;21.60;99.90;;;;;;5010983;28;20111;-78
2022/08/26 09:58:54;;;;;;;10.77;1.95;;;21.40;99.90;;;;;;4995994;28;20025;-77
2022/08/26 10:01:22;;;;;;;8.73;2.03;;;21.30;99.90;;;;;;5008613;28;20052;-76
2022/08/26 10:03:49;;;;;;;9.95;2.15;;;21.20;99.90;;;;;;5015703;28;20052;-76
2022/08/26 10:06:20;;;;;;;11.90;2.38;;;21.20;99.90;;;;;;5026340;28;20156;-77
2022/08/26 10:08:50;;;;;;;16.88;3.38;;;21.00;99.90;;;;;;5014254;28;20048;-77
2022/08/26 10:11:44;;;;;;;9.95;2.40;;;21.10;99.90;;;;;;5014643;28;20049;-76
2022/08/26 10:14:23;;;;;;;16.08;3.13;;;21.20;99.90;;;;;;5029892;28;20048;-75
2022/08/26 10:17:04;;;;;;;10.57;2.50;;;21.20;99.90;;;;;;5008151;28;20049;-76
2022/08/26 10:20:01;;;;;;;16.73;2.55;;;21.20;99.90;;;;;;5004908;28;20132;-76
2022/08/26 10:22:39;;;;;;;17.60;2.75;;;21.10;99.90;;;;;;5013118;28;20053;-78
2022/08/26 10:25:10;;;;;;;13.50;2.53;;;21.10;99.90;;;;;;5008414;28;20052;-79
2022/08/26 10:28:11;;;;;;;12.30;2.25;;;21.10;99.90;;;;;;5014047;28;20123;-79
2022/08/26 10:30:44;;;;;;;12.68;2.17;;;21.00;99.90;;;;;;5018577;28;20473;-77
2022/08/26 10:33:14;;;;;;;13.88;3.00;;;21.00;99.90;;;;;;5016491;28;20042;-77
2022/08/26 10:35:58;;;;;;;14.00;2.35;;;21.00;99.90;;;;;;5016981;28;20048;-77
2022/08/26 10:38:37;;;;;;;12.98;2.40;;;21.10;99.90;;;;;;5023727;28;20112;-77
2022/08/26 10:41:11;;;;;;;9.77;2.20;;;21.10;99.90;;;;;;5024076;28;20144;-77
2022/08/26 10:43:41;;;;;;;15.23;2.00;;;21.10;99.90;;;;;;5025077;28;22097;-79
2022/08/26 10:46:21;;;;;;;12.85;2.33;;;21.00;99.90;;;;;;5022077;28;20034;-78
2022/08/26 10:49:00;;;;;;;16.05;3.00;;;20.90;99.90;;;;;;5018669;28;20128;-78
2022/08/26 10:51:34;;;;;;;15.60;2.35;;;20.90;99.90;;;;;;5014527;28;20148;-76
2022/08/26 10:54:09;;;;;;;8.15;1.80;;;20.90;99.90;;;;;;5029170;28;20061;-79
2022/08/26 10:56:38;;;;;;;15.55;2.55;;;20.90;99.90;;;;;;5014792;28;20528;-80
2022/08/26 10:59:28;;;;;;;12.20;2.10;;;20.80;99.90;;;;;;5018392;28;20057;-77
2022/08/26 11:02:10;;;;;;;9.32;2.00;;;20.90;99.90;;;;;;5020702;28;20388;-78
2022/08/26 11:04:39;;;;;;;10.15;2.30;;;21.00;99.90;;;;;;5024239;28;20399;-79
2022/08/26 11:07:27;;;;;;;12.85;2.70;;;21.00;99.90;;;;;;5029067;28;20366;-77
2022/08/26 11:09:52;;;;;;;11.13;2.30;;;21.20;99.90;;;;;;5001021;28;20083;-75
2022/08/26 11:12:33;;;;;;;15.85;2.60;;;21.10;99.90;;;;;;5014999;28;20073;-76
2022/08/26 11:15:00;;;;;;;9.55;2.65;;;21.30;99.90;;;;;;5035509;28;20045;-77
2022/08/26 11:17:47;;;;;;;10.10;2.50;;;21.20;99.90;;;;;;5015145;28;20204;-77
2022/08/26 11:20:22;;;;;;;9.65;2.70;;;21.20;99.90;;;;;;5009469;28;20155;-76
2022/08/26 11:22:52;;;;;;;12.40;2.58;;;21.10;99.90;;;;;;4999920;28;20485;-76
2022/08/26 11:25:24;;;;;;;17.52;2.92;;;21.00;99.90;;;;;;5015076;28;20136;-76
2022/08/26 11:27:54;;;;;;;9.48;2.00;;;20.90;99.90;;;;;;5016172;28;20129;-74
2022/08/26 11:30:19;;;;;;;14.05;3.00;;;20.60;99.90;;;;;;5016516;28;20139;-76
2022/08/26 11:32:56;;;;;;;13.50;3.13;;;20.50;99.90;;;;;;5017154;28;20057;-75
2022/08/26 11:35:24;;;;;;;11.90;3.33;;;20.50;99.90;;;;;;4997201;28;20120;-75
2022/08/26 11:37:57;;;;;;;14.07;2.83;;;20.40;99.90;;;;;;5031543;28;20041;-76
2022/08/26 11:40:39;;;;;;;14.18;2.88;;;20.40;99.90;;;;;;5015512;28;20064;-76
2022/08/26 11:43:18;;;;;;;11.60;2.65;;;20.30;99.90;;;;;;5014585;28;20053;-76
2022/08/26 11:46:00;;;;;;;14.02;2.90;;;20.30;99.90;;;;;;4993761;28;20061;-77
2022/08/26 11:48:27;;;;;;;10.05;2.60;;;20.20;99.90;;;;;;5017922;28;20051;-77
2022/08/26 11:50:59;;;;;;;11.82;2.92;;;20.10;99.90;;;;;;5008880;28;20055;-76
2022/08/26 11:53:25;;;;;;;18.02;3.33;;;20.20;99.90;;;;;;5036213;28;20120;-76
2022/08/26 11:55:53;;;;;;;14.35;2.92;;;20.20;99.90;;;;;;5033162;28;20037;-78
2022/08/26 11:58:21;;;;;;;15.15;2.67;;;20.10;99.90;;;;;;5005996;28;20057;-76
2022/08/26 12:01:00;;;;;;;19.02;2.92;;;20.20;99.90;;;;;;5036714;28;20585;-77
2022/08/26 12:03:37;;;;;;;20.17;3.38;;;20.40;99.90;;;;;;5029128;28;20364;-78
2022/08/26 12:06:45;;;;;;;14.75;2.78;;;20.50;99.90;;;;;;5039423;28;20050;-78
2022/08/26 12:09:20;;;;;;;21.98;3.55;;;20.60;99.90;;;;;;4965244;28;20100;-76
2022/08/26 12:11:45;;;;;;;20.63;2.70;;;20.60;99.90;;;;;;4966359;28;20052;-77
2022/08/26 12:14:20;;;;;;;8.48;2.30;;;20.60;99.90;;;;;;4957773;28;20226;-78
2022/08/26 12:16:46;;;;;;;;;;;20.70;99.90;;;;;;4958394;28;20156;-78
2022/08/26 12:19:30;;;;;;;10.00;2.10;;;20.70;99.90;;;;;;4953609;28;19992;-79
2022/08/26 12:22:21;;;;;;;13.82;2.33;;;20.70;99.90;;;;;;4947530;28;20103;-77
2022/08/26 12:25:08;;;;;;;9.88;2.10;;;20.80;99.90;;;;;;4967277;28;20513;-78
2022/08/26 12:31:22;;;;;;;12.88;2.20;;;20.80;99.90;;;;;;4972883;28;20053;-78
2022/08/26 12:33:48;;;;;;;12.00;2.00;;;20.80;99.90;;;;;;4959592;28;20054;-77
2022/08/26 12:36:20;;;;;;;7.35;1.80;;;20.90;99.90;;;;;;4956114;28;20092;-79
2022/08/26 12:38:46;;;;;;;7.82;1.65;;;20.80;99.90;;;;;;4941115;28;21332;-77
2022/08/26 12:41:31;;;;;;;9.38;2.05;;;20.80;99.90;;;;;;4958933;28;20541;-77
2022/08/26 12:43:57;;;;;;;9.68;2.08;;;20.90;99.90;;;;;;5023624;28;20056;-77
2022/08/26 12:46:26;;;;;;;8.68;1.95;;;20.90;99.90;;;;;;5046741;28;20143;-76
2022/08/26 12:48:52;;;;;;;10.65;1.80;;;20.80;99.90;;;;;;5030543;28;20136;-77
2022/08/26 12:51:27;;;;;;;7.90;2.05;;;20.80;99.90;;;;;;5020207;28;20121;-78
2022/08/26 12:53:54;;;;;;;11.95;2.20;;;20.70;99.90;;;;;;5034405;28;20059;-77
2022/08/26 12:56:35;;;;;;;15.63;2.85;;;20.80;99.90;;;;;;5032221;28;20037;-78
2022/08/26 12:59:07;;;;;;;10.52;2.70;;;20.80;99.90;;;;;;5031271;28;20067;-76
2022/08/26 13:01:41;;;;;;;12.77;2.65;;;20.70;99.90;;;;;;5015469;28;20515;-77